Time;durP1;ratioP1;P1;durP2;ratioP2;P2;SDS_P1;SDS_P2;PMS_P1;PMS_P2;Temp;Humidity;BMP_temperature;BMP_pressure;BME280_temperature;BME280_humidity;BME280_pressure;Samples;Min_cycle;Max_cycle;Signal;HPM_P1;HPM_P2
2023/10/29 00:00:56;;;;;;;11.65;8.88;;;;;;;12.68;69.68;98635.69;4487886;31;33078;-88
2023/10/29 00:03:24;;;;;;;12.77;9.40;;;;;;;12.87;68.87;98634.75;4496724;31;33191;-88
2023/10/29 00:05:52;;;;;;;13.40;10.63;;;;;;;12.87;68.76;98650.34;4488942;31;34169;-87
2023/10/29 00:08:20;;;;;;;12.98;9.98;;;;;;;12.86;68.54;98651.22;4488641;31;34492;-89
2023/10/29 00:10:48;;;;;;;12.40;10.57;;;;;;;12.78;68.82;98651.28;4490965;31;32793;-88
2023/10/29 00:13:15;;;;;;;13.93;11.15;;;;;;;12.87;68.72;98661.63;4488113;31;33092;-87
2023/10/29 00:15:42;;;;;;;13.02;10.35;;;;;;;12.84;68.71;98666.87;4490425;31;33996;-88
2023/10/29 00:18:12;;;;;;;14.95;10.50;;;;;;;12.76;69.02;98652.13;4488518;31;33736;-89
2023/10/29 00:20:40;;;;;;;11.30;10.00;;;;;;;12.81;68.80;98655.59;4473351;32;32820;-90
2023/10/29 00:23:07;;;;;;;12.88;10.15;;;;;;;12.84;68.40;98652.97;4475799;31;34241;-89
2023/10/29 00:25:35;;;;;;;14.43;10.85;;;;;;;12.85;68.02;98642.56;4494352;31;35194;-90
2023/10/29 00:28:04;;;;;;;13.82;10.68;;;;;;;12.87;67.87;98635.59;4484600;31;34274;-89
2023/10/29 00:30:33;;;;;;;13.75;10.45;;;;;;;12.76;68.09;98639.13;4495065;31;33482;-87
2023/10/29 00:33:03;;;;;;;10.88;9.68;;;;;;;12.75;68.16;98635.66;4489004;31;34423;-87
2023/10/29 00:35:30;;;;;;;11.85;9.77;;;;;;;12.76;68.07;98640.00;4487447;31;34247;-89
2023/10/29 00:37:58;;;;;;;16.20;10.15;;;;;;;12.76;68.41;98647.78;4496359;31;33847;-88
2023/10/29 00:40:30;;;;;;;10.85;9.50;;;;;;;12.71;68.42;98643.50;4490321;31;32772;-88
2023/10/29 00:42:59;;;;;;;13.85;10.32;;;;;;;12.66;68.67;98636.59;4474446;31;33702;-89
2023/10/29 00:45:27;;;;;;;12.85;9.48;;;;;;;12.72;68.62;98633.06;4496787;31;34566;-87
2023/10/29 00:47:54;;;;;;;10.15;8.77;;;;;;;12.84;68.41;98634.75;4486108;31;32051;-89
2023/10/29 00:50:22;;;;;;;12.18;9.73;;;;;;;12.72;68.25;98635.69;4486339;31;33509;-89
2023/10/29 00:52:50;;;;;;;12.60;10.20;;;;;;;12.69;68.13;98630.50;4496587;31;33949;-89
2023/10/29 00:55:18;;;;;;;12.55;8.63;;;;;;;12.69;68.11;98633.12;4495024;31;34883;-89
2023/10/29 00:57:45;;;;;;;11.30;9.18;;;;;;;12.69;67.94;98634.81;4470363;31;32992;-89
2023/10/29 01:00:17;;;;;;;13.57;10.90;;;;;;;12.62;67.86;98627.06;4484818;31;32237;-88
2023/10/29 01:02:45;;;;;;;12.45;11.15;;;;;;;12.65;68.01;98624.47;4488459;31;33613;-88
2023/10/29 01:05:12;;;;;;;13.88;10.85;;;;;;;12.63;68.16;98621.00;4489290;31;34516;-89
2023/10/29 01:07:40;;;;;;;17.60;11.48;;;;;;;12.59;68.41;98616.66;4487554;31;31961;-88
2023/10/29 01:10:08;;;;;;;15.20;12.35;;;;;;;12.61;68.32;98617.53;4489513;31;33842;-89
2023/10/29 01:12:35;;;;;;;14.63;11.70;;;;;;;12.70;68.19;98614.03;4469289;32;34238;-89
2023/10/29 01:15:03;;;;;;;14.35;11.25;;;;;;;12.69;68.19;98608.81;4486145;31;34202;-89
2023/10/29 01:17:31;;;;;;;14.87;11.20;;;;;;;12.59;68.80;98616.66;4497742;31;33681;-86
2023/10/29 01:19:58;;;;;;;15.48;12.18;;;;;;;12.36;70.57;98621.97;4473710;31;33669;-89
2023/10/29 01:22:26;;;;;;;15.00;11.73;;;;;;;12.47;70.07;98626.25;4485418;31;33842;-89
2023/10/29 01:24:54;;;;;;;12.65;10.35;;;;;;;12.46;70.32;98627.09;4471731;31;33457;-89
2023/10/29 01:27:21;;;;;;;12.35;9.80;;;;;;;12.48;70.40;98633.19;4491937;31;33581;-87
2023/10/29 01:29:49;;;;;;;11.63;9.80;;;;;;;12.56;70.02;98628.81;4484460;31;32341;-88
2023/10/29 01:32:17;;;;;;;11.12;9.95;;;;;;;12.59;69.97;98640.06;4496262;31;33589;-89
2023/10/29 01:34:44;;;;;;;13.93;11.50;;;;;;;12.63;69.76;98631.38;4486041;31;35004;-89
2023/10/29 01:37:12;;;;;;;13.07;9.70;;;;;;;12.55;70.04;98633.16;4484500;31;33457;-89
2023/10/29 01:39:39;;;;;;;11.73;10.48;;;;;;;12.61;69.77;98637.47;4496846;31;32809;-90
2023/10/29 01:42:07;;;;;;;13.73;11.73;;;;;;;12.66;69.31;98644.37;4473591;31;34009;-88
2023/10/29 01:44:34;;;;;;;13.07;11.68;;;;;;;12.59;69.30;98634.00;4495636;31;34059;-89
2023/10/29 01:47:03;;;;;;;14.60;13.10;;;;;;;12.47;69.63;98629.72;4483988;31;35566;-88
2023/10/29 01:49:31;;;;;;;14.25;11.52;;;;;;;12.55;69.36;98638.34;4497057;31;32834;-90
2023/10/29 01:52:00;;;;;;;14.02;12.45;;;;;;;12.45;69.66;98644.44;4493504;31;33455;-88
2023/10/29 01:54:28;;;;;;;14.60;13.02;;;;;;;12.47;69.43;98640.12;4494906;31;33448;-90
2023/10/29 01:56:55;;;;;;;15.13;13.35;;;;;;;12.44;69.51;98641.88;4499027;31;33630;-89
2023/10/29 01:59:23;;;;;;;14.43;11.90;;;;;;;12.41;69.43;98647.94;4497471;31;33140;-87
2023/10/29 02:01:50;;;;;;;15.18;12.50;;;;;;;12.41;69.32;98646.19;4497043;31;32878;-88
2023/10/29 02:04:20;;;;;;;15.13;11.80;;;;;;;12.35;69.05;98655.72;4498674;31;34884;-90
2023/10/29 02:06:47;;;;;;;15.82;13.10;;;;;;;12.37;68.88;98659.22;4491219;31;34480;-90
2023/10/29 02:09:15;;;;;;;16.40;11.90;;;;;;;12.32;68.84;98655.78;4484818;31;34270;-88
2023/10/29 02:11:43;;;;;;;19.70;12.95;;;;;;;12.27;68.81;98653.16;4481073;31;33191;-89
2023/10/29 02:14:10;;;;;;;15.65;12.13;;;;;;;12.12;68.89;98659.28;4497195;31;35436;-87
2023/10/29 02:16:38;;;;;;;16.33;11.98;;;;;;;12.30;67.92;98667.87;4488473;31;33565;-89
2023/10/29 02:19:05;;;;;;;14.25;12.23;;;;;;;12.15;68.16;98656.66;4487485;31;34178;-88
2023/10/29 02:21:34;;;;;;;16.45;12.68;;;;;;;12.12;67.83;98660.97;4498542;31;33490;-90
2023/10/29 02:24:02;;;;;;;17.73;12.95;;;;;;;11.80;68.39;98661.84;4496320;31;34141;-89
2023/10/29 02:26:29;;;;;;;14.80;12.23;;;;;;;11.86;68.09;98655.84;4499250;31;33356;-89
2023/10/29 02:28:57;;;;;;;14.65;12.13;;;;;;;11.98;67.68;98660.16;4469403;32;33497;-87
2023/10/29 02:31:25;;;;;;;14.80;11.60;;;;;;;12.01;67.48;98661.03;4483464;31;33300;-89
2023/10/29 02:33:53;;;;;;;12.88;11.57;;;;;;;11.99;67.29;98672.28;4498487;31;33739;-89
2023/10/29 02:36:21;;;;;;;13.07;11.68;;;;;;;11.99;67.24;98672.28;4496957;31;35486;-89
2023/10/29 02:38:49;;;;;;;12.82;11.38;;;;;;;11.91;67.15;98667.94;4470635;31;31862;-90
2023/10/29 02:41:16;;;;;;;13.77;10.73;;;;;;;11.87;67.26;98670.56;4478074;31;33877;-89
2023/10/29 02:43:44;;;;;;;14.45;10.77;;;;;;;11.96;66.79;98670.53;4481867;31;33970;-89
2023/10/29 02:46:12;;;;;;;12.27;10.55;;;;;;;11.90;67.22;98673.16;4492667;31;32885;-89
2023/10/29 02:48:40;;;;;;;12.73;11.43;;;;;;;11.82;67.57;98667.03;4498148;31;33100;-88
2023/10/29 02:51:11;;;;;;;13.00;10.32;;;;;;;11.91;67.42;98667.09;4495712;31;34589;-89
2023/10/29 02:53:39;;;;;;;12.57;11.27;;;;;;;11.86;67.63;98667.09;4487021;31;34099;-88
2023/10/29 02:56:07;;;;;;;15.15;11.85;;;;;;;11.89;67.80;98659.31;4498744;31;34617;-88
2023/10/29 02:58:35;;;;;;;14.68;11.20;;;;;;;11.91;67.60;98652.34;4494306;31;32489;-89
2023/10/29 03:01:07;;;;;;;12.68;11.23;;;;;;;11.89;67.83;98651.50;4494709;31;33861;-88
2023/10/29 03:03:36;;;;;;;14.30;12.02;;;;;;;11.87;68.44;98654.97;4482396;31;34691;-89
2023/10/29 03:06:08;;;;;;;16.33;12.63;;;;;;;11.85;68.58;98659.28;4495219;31;33537;-88
2023/10/29 03:08:36;;;;;;;15.07;12.20;;;;;;;11.90;68.48;98657.56;4485240;31;33320;-89
2023/10/29 03:11:03;;;;;;;14.32;11.93;;;;;;;11.81;68.58;98667.91;4490688;31;33800;-88
2023/10/29 03:13:31;;;;;;;16.25;13.57;;;;;;;11.90;68.50;98667.97;4483941;31;34078;-89
2023/10/29 03:15:59;;;;;;;16.12;12.48;;;;;;;11.91;68.58;98669.69;4482576;31;32336;-88
2023/10/29 03:18:29;;;;;;;19.90;14.55;;;;;;;11.86;68.86;98667.09;4496268;31;33415;-88
2023/10/29 03:20:57;;;;;;;20.17;14.25;;;;;;;11.91;68.76;98660.16;4487037;31;33470;-89
2023/10/29 03:23:24;;;;;;;18.37;13.77;;;;;;;11.90;68.93;98668.81;4473924;32;33105;-87
2023/10/29 03:25:53;;;;;;;24.27;14.20;;;;;;;11.93;69.01;98666.22;4486517;31;33850;-89
2023/10/29 03:28:21;;;;;;;18.73;14.13;;;;;;;11.99;68.96;98665.34;4498006;31;32695;-89
2023/10/29 03:30:48;;;;;;;16.80;13.48;;;;;;;11.98;69.17;98671.41;4487234;31;33476;-88
2023/10/29 03:33:16;;;;;;;17.80;14.10;;;;;;;11.95;69.29;98679.19;4482910;31;33760;-87
2023/10/29 03:35:44;;;;;;;19.17;14.02;;;;;;;11.92;69.49;98681.78;4497277;31;33997;-89
2023/10/29 03:38:11;;;;;;;18.95;14.00;;;;;;;12.03;69.10;98679.19;4492547;31;33061;-88
2023/10/29 03:40:39;;;;;;;51.17;16.35;;;;;;;11.96;69.50;98674.87;4494894;31;32576;-89
2023/10/29 03:43:07;;;;;;;162.82;24.48;;;;;;;11.97;69.56;98679.19;4492079;31;34088;-89
2023/10/29 03:45:35;;;;;;;94.00;19.30;;;;;;;11.48;71.89;98677.44;4496557;31;33810;-88
2023/10/29 03:48:02;;;;;;;92.15;17.90;;;;;;;12.06;69.99;98679.19;4497537;31;33334;-88
2023/10/29 03:50:30;;;;;;;26.87;15.13;;;;;;;12.05;69.82;98673.13;4478383;31;33209;-89
2023/10/29 03:53:00;;;;;;;66.85;17.62;;;;;;;11.86;70.57;98671.44;4497077;31;33604;-88
2023/10/29 03:55:27;;;;;;;111.53;20.17;;;;;;;11.93;70.56;98673.13;4478722;31;34186;-87
2023/10/29 03:57:56;;;;;;;40.42;15.45;;;;;;;12.01;70.65;98667.91;4484077;31;32329;-89
2023/10/29 04:00:24;;;;;;;16.67;13.45;;;;;;;12.02;70.77;98670.53;4495477;31;33830;-89
2023/10/29 04:02:51;;;;;;;20.27;12.18;;;;;;;12.03;70.91;98661.88;4483738;31;32871;-88
2023/10/29 04:05:19;;;;;;;13.40;11.68;;;;;;;12.09;70.79;98664.47;4483866;31;33821;-88
2023/10/29 04:07:46;;;;;;;15.05;11.23;;;;;;;12.01;70.84;98665.31;4480820;32;32183;-88
2023/10/29 04:10:14;;;;;;;16.52;11.68;;;;;;;12.01;70.94;98660.13;4494467;31;32930;-87
2023/10/29 04:12:43;;;;;;;15.35;11.52;;;;;;;12.04;70.90;98663.59;4481183;32;34625;-89
2023/10/29 04:15:11;;;;;;;15.52;11.35;;;;;;;12.02;70.93;98662.75;4489961;31;33787;-88
2023/10/29 04:17:39;;;;;;;13.73;11.30;;;;;;;12.12;70.23;98658.38;4482451;31;33799;-89
2023/10/29 04:20:08;;;;;;;17.15;11.45;;;;;;;12.06;70.34;98663.59;4481319;31;33799;-88
2023/10/29 04:22:36;;;;;;;16.45;11.23;;;;;;;12.04;70.22;98663.59;4480794;32;34007;-88
2023/10/29 04:25:05;;;;;;;15.77;11.57;;;;;;;11.97;70.36;98658.41;4487956;31;34311;-89
2023/10/29 04:27:32;;;;;;;18.20;12.02;;;;;;;12.02;70.19;98662.75;4498481;31;33360;-89
2023/10/29 04:30:00;;;;;;;20.88;12.35;;;;;;;11.98;70.02;98666.22;4496277;31;33794;-87
2023/10/29 04:32:28;;;;;;;22.65;12.60;;;;;;;11.97;70.18;98669.69;4498556;31;35025;-88
2023/10/29 04:34:56;;;;;;;18.15;11.35;;;;;;;12.11;69.64;98667.91;4484767;31;32259;-89
2023/10/29 04:37:23;;;;;;;16.15;11.12;;;;;;;12.08;69.47;98670.50;4495910;31;33398;-89
2023/10/29 04:39:51;;;;;;;19.10;11.52;;;;;;;12.03;69.50;98664.47;4483769;31;32779;-88
2023/10/29 04:42:18;;;;;;;21.95;11.98;;;;;;;12.00;69.68;98666.19;4497345;31;33672;-88
2023/10/29 04:44:46;;;;;;;19.80;13.00;;;;;;;12.01;69.49;98665.31;4497865;31;34236;-88
2023/10/29 04:47:15;;;;;;;15.48;12.48;;;;;;;12.03;69.27;98667.06;4494264;31;32195;-89
2023/10/29 04:49:43;;;;;;;19.10;12.65;;;;;;;11.99;69.34;98673.13;4498659;31;34468;-89
2023/10/29 04:52:11;;;;;;;17.70;12.50;;;;;;;11.89;69.65;98671.41;4495701;31;35099;-87
2023/10/29 04:54:42;;;;;;;16.00;12.02;;;;;;;11.98;69.41;98668.81;4499447;31;33377;-88
2023/10/29 04:57:10;;;;;;;14.95;12.65;;;;;;;11.96;69.26;98667.94;4480389;31;32241;-87
2023/10/29 04:59:37;;;;;;;17.20;13.00;;;;;;;11.94;69.12;98674.87;4474156;31;33416;-87
2023/10/29 05:02:05;;;;;;;17.30;11.63;;;;;;;11.95;68.83;98668.81;4496002;31;35073;-89
2023/10/29 05:04:33;;;;;;;13.55;11.55;;;;;;;11.89;68.69;98663.59;4472553;32;33752;-88
2023/10/29 05:07:02;;;;;;;14.43;10.95;;;;;;;11.86;68.25;98671.44;4492397;31;33392;-88
2023/10/29 05:09:29;;;;;;;12.48;9.75;;;;;;;11.98;67.43;98671.41;4470756;31;32466;-88
2023/10/29 05:11:57;;;;;;;20.65;10.50;;;;;;;11.82;67.55;98669.63;4494232;31;34200;-87
2023/10/29 05:14:24;;;;;;;11.82;10.40;;;;;;;11.76;67.22;98672.25;4498912;31;33628;-89
2023/10/29 05:16:52;;;;;;;10.88;9.40;;;;;;;11.87;66.54;98662.75;4497940;31;33206;-89
2023/10/29 05:19:20;;;;;;;11.07;9.48;;;;;;;11.67;66.84;98662.75;4497576;31;33512;-88
2023/10/29 05:21:48;;;;;;;13.80;12.25;;;;;;;11.74;66.64;98666.19;4486015;31;34050;-87
2023/10/29 05:24:16;;;;;;;13.07;11.68;;;;;;;11.61;67.07;98671.38;4491067;31;34498;-88
2023/10/29 05:26:44;;;;;;;18.90;13.20;;;;;;;11.68;66.75;98673.13;4497958;31;32918;-89
2023/10/29 05:29:11;;;;;;;12.90;11.27;;;;;;;11.57;67.23;98674.84;4486131;31;34455;-89
2023/10/29 05:31:39;;;;;;;15.95;11.43;;;;;;;11.68;66.70;98672.25;4480575;31;34093;-88
2023/10/29 05:34:07;;;;;;;16.70;12.55;;;;;;;11.62;66.56;98680.03;4497364;31;34093;-89
2023/10/29 05:36:35;;;;;;;16.42;12.68;;;;;;;11.54;66.94;98676.56;4496171;31;33573;-88
2023/10/29 05:39:05;;;;;;;22.65;14.35;;;;;;;11.60;66.80;98680.03;4491225;31;32913;-88
2023/10/29 05:41:32;;;;;;;26.58;15.20;;;;;;;11.54;66.83;98685.22;4493785;31;34599;-88
2023/10/29 05:44:00;;;;;;;25.23;17.15;;;;;;;11.37;67.22;98686.94;4494474;31;33560;-87
2023/10/29 05:46:27;;;;;;;35.75;21.17;;;;;;;11.37;67.44;98693.00;4469362;32;32048;-88
2023/10/29 05:48:55;;;;;;;34.75;21.83;;;;;;;11.45;67.35;98693.00;4492491;31;33638;-90
2023/10/29 05:51:23;;;;;;;37.70;23.85;;;;;;;11.53;67.33;98695.59;4476550;32;33161;-89
2023/10/29 05:53:51;;;;;;;44.88;25.40;;;;;;;11.48;67.54;98695.59;4489524;31;33881;-87
2023/10/29 05:56:19;;;;;;;31.73;21.87;;;;;;;11.52;67.54;98699.94;4494305;31;33391;-88
2023/10/29 05:58:47;;;;;;;134.77;68.90;;;;;;;11.43;67.89;98697.31;4479738;31;33246;-89
2023/10/29 06:01:15;;;;;;;77.65;42.47;;;;;;;11.50;67.91;98699.06;4481459;31;36365;-88
2023/10/29 06:03:43;;;;;;;60.58;29.10;;;;;;;11.61;68.15;98699.94;4485678;31;34535;-88
2023/10/29 06:06:11;;;;;;;48.40;27.27;;;;;;;11.48;68.80;98700.78;4498574;31;33488;-89
2023/10/29 06:08:38;;;;;;;44.85;25.70;;;;;;;11.60;68.76;98705.13;4495235;31;34054;-89
2023/10/29 06:11:06;;;;;;;107.97;52.67;;;;;;;11.59;69.10;98706.88;4497553;31;34934;-89
2023/10/29 06:13:34;;;;;;;56.05;34.17;;;;;;;11.58;69.30;98705.13;4490707;31;34416;-89
2023/10/29 06:16:06;;;;;;;45.50;29.33;;;;;;;11.55;69.90;98707.69;4495309;31;34968;-89
2023/10/29 06:18:35;;;;;;;42.22;28.65;;;;;;;11.61;70.09;98725.91;4497316;31;33508;-90
2023/10/29 06:21:03;;;;;;;28.90;23.38;;;;;;;11.62;70.11;98725.03;4478309;32;33355;-90
2023/10/29 06:23:31;;;;;;;33.33;24.65;;;;;;;11.71;70.38;98731.13;4484413;31;33734;-90
2023/10/29 06:25:58;;;;;;;30.77;19.20;;;;;;;11.63;70.81;98724.19;4480158;31;32671;-90
2023/10/29 06:28:26;;;;;;;29.60;20.73;;;;;;;11.64;71.08;98732.84;4494614;31;34641;-89
2023/10/29 06:30:53;;;;;;;40.20;21.87;;;;;;;11.65;71.34;98730.22;4494255;31;34139;-88
2023/10/29 06:33:21;;;;;;;78.53;30.15;;;;;;;11.71;71.23;98731.13;4496973;31;33697;-89
2023/10/29 06:35:49;;;;;;;46.60;25.45;;;;;;;11.67;71.31;98728.50;4481927;31;32684;-87
2023/10/29 06:38:16;;;;;;;36.13;25.27;;;;;;;11.61;71.69;98733.69;4479694;31;33610;-86
2023/10/29 06:40:44;;;;;;;35.65;23.98;;;;;;;11.74;71.50;98728.50;4486661;31;32722;-87
2023/10/29 06:43:11;;;;;;;26.95;21.35;;;;;;;11.87;71.12;98730.28;4497921;31;34404;-89
2023/10/29 06:45:39;;;;;;;29.37;22.65;;;;;;;11.89;71.25;98733.75;4498062;31;32877;-87
2023/10/29 06:48:07;;;;;;;22.08;19.02;;;;;;;11.88;71.49;98742.41;4480609;31;34056;-89
2023/10/29 06:50:36;;;;;;;24.45;20.23;;;;;;;12.07;70.96;98746.75;4494060;31;33880;-86
2023/10/29 06:53:05;;;;;;;28.48;23.42;;;;;;;12.02;71.08;98751.06;4485646;31;34479;-89
2023/10/29 06:55:35;;;;;;;33.47;26.02;;;;;;;12.08;71.27;98750.19;4484124;31;33451;-86
2023/10/29 06:58:03;;;;;;;29.65;24.52;;;;;;;12.09;71.35;98758.00;4482459;31;34696;-89
2023/10/29 07:00:31;;;;;;;38.55;30.33;;;;;;;12.06;71.68;98752.81;4470339;31;34506;-87
2023/10/29 07:02:59;;;;;;;37.35;29.45;;;;;;;12.04;71.91;98753.66;4493762;31;33474;-83
2023/10/29 07:05:27;;;;;;;33.83;28.20;;;;;;;12.04;72.33;98754.53;4491721;31;33638;-86
2023/10/29 07:07:55;;;;;;;36.17;28.80;;;;;;;12.16;72.17;98756.28;4494062;31;33272;-87
2023/10/29 07:10:23;;;;;;;41.88;30.77;;;;;;;12.24;72.17;98767.53;4495570;31;34061;-88
2023/10/29 07:12:52;;;;;;;46.53;36.10;;;;;;;12.21;72.54;98764.06;4497412;31;33949;-88
2023/10/29 07:15:20;;;;;;;57.55;41.88;;;;;;;12.34;72.21;98760.59;4498087;31;33490;-87
2023/10/29 07:17:48;;;;;;;53.13;41.67;;;;;;;12.42;72.29;98761.44;4482228;31;33691;-86
2023/10/29 07:20:15;;;;;;;58.10;44.85;;;;;;;12.24;73.71;98761.47;4488124;31;34581;-88
2023/10/29 07:22:43;;;;;;;77.15;49.97;;;;;;;12.55;72.87;98763.16;4494254;31;33853;-86
2023/10/29 07:25:11;;;;;;;52.62;39.97;;;;;;;12.50;73.07;98757.13;4494633;31;33331;-90
2023/10/29 07:27:38;;;;;;;36.55;30.08;;;;;;;12.59;73.34;98751.91;4498411;31;33715;-83
2023/10/29 07:30:07;;;;;;;45.63;32.33;;;;;;;12.63;73.52;98757.97;4481011;31;33523;-82
2023/10/29 07:32:35;;;;;;;34.42;27.90;;;;;;;12.71;73.42;98752.72;4496342;31;33579;-85
2023/10/29 07:35:04;;;;;;;43.30;32.63;;;;;;;12.75;73.38;98747.50;4486314;31;33498;-86
2023/10/29 07:37:32;;;;;;;56.33;39.25;;;;;;;12.76;73.72;98748.38;4495745;31;33863;-84
2023/10/29 07:39:59;;;;;;;42.00;31.50;;;;;;;12.77;73.93;98747.53;4495212;31;33343;-83
2023/10/29 07:42:28;;;;;;;36.10;27.70;;;;;;;12.69;74.71;98751.84;4493607;31;33712;-84
2023/10/29 07:44:56;;;;;;;38.00;29.52;;;;;;;12.83;74.23;98752.69;4489172;31;33199;-89
2023/10/29 07:47:23;;;;;;;35.25;27.67;;;;;;;13.02;73.90;98749.16;4480548;31;33954;-86
2023/10/29 07:49:51;;;;;;;32.08;27.35;;;;;;;12.85;74.85;98751.81;4493358;31;34190;-89
2023/10/29 07:52:18;;;;;;;32.42;25.52;;;;;;;12.90;75.16;98754.41;4489150;31;32456;-88
2023/10/29 07:54:46;;;;;;;30.25;25.85;;;;;;;12.87;75.72;98754.41;4489062;31;33142;-93
2023/10/29 07:57:14;;;;;;;28.70;18.70;;;;;;;13.00;75.68;98745.72;4498033;31;33754;-90
2023/10/29 07:59:41;;;;;;;31.33;23.60;;;;;;;12.82;76.96;98750.97;4498529;31;34940;-86
2023/10/29 08:02:09;;;;;;;32.88;26.15;;;;;;;12.91;77.19;98751.78;4495688;31;33619;-88
2023/10/29 08:04:37;;;;;;;32.83;27.23;;;;;;;13.03;76.60;98740.50;4489031;31;33593;-92
2023/10/29 08:07:05;;;;;;;28.23;23.85;;;;;;;13.18;76.43;98739.53;4466700;31;33996;-89
2023/10/29 08:09:32;;;;;;;28.67;21.27;;;;;;;13.26;76.00;98743.03;4482621;31;33742;-86
2023/10/29 08:12:00;;;;;;;27.70;20.52;;;;;;;13.31;76.00;98732.59;4488038;31;34501;-85
2023/10/29 08:14:28;;;;;;;24.75;20.45;;;;;;;13.30;76.20;98741.28;4484306;31;34246;-87
2023/10/29 08:16:55;;;;;;;24.83;19.17;;;;;;;13.33;76.07;98746.44;4480773;31;34049;-86
2023/10/29 08:19:24;;;;;;;23.50;18.85;;;;;;;13.45;76.06;98748.12;4496527;31;33978;-85
2023/10/29 08:21:51;;;;;;;23.70;17.33;;;;;;;13.35;76.27;98742.97;4498047;31;34784;-86
2023/10/29 08:24:18;;;;;;;25.20;16.70;;;;;;;13.48;76.26;98754.19;4493945;31;34223;-87
2023/10/29 08:26:46;;;;;;;24.37;17.48;;;;;;;13.45;76.33;98762.03;4469952;32;33240;-86
2023/10/29 08:29:14;;;;;;;27.05;18.87;;;;;;;13.51;76.48;98754.16;4483328;31;34153;-89
2023/10/29 08:31:41;;;;;;;25.08;19.52;;;;;;;13.59;77.19;98751.50;4491569;31;33554;-88
2023/10/29 08:34:10;;;;;;;25.58;18.95;;;;;;;13.76;76.97;98747.06;4483389;31;33558;-86
2023/10/29 08:36:38;;;;;;;25.92;17.40;;;;;;;13.82;77.18;98749.63;4485984;31;34891;-87
2023/10/29 08:39:05;;;;;;;21.98;17.33;;;;;;;13.83;77.44;98755.72;4497803;31;33787;-86
2023/10/29 08:41:35;;;;;;;28.98;21.10;;;;;;;14.04;77.27;98750.34;4464661;32;33240;-89
2023/10/29 08:44:02;;;;;;;25.33;17.15;;;;;;;14.25;76.78;98753.66;4496084;31;34195;-93
2023/10/29 08:46:30;;;;;;;19.83;14.13;;;;;;;14.22;77.15;98751.06;4461902;31;33140;-83
2023/10/29 08:48:58;;;;;;;14.45;9.07;;;;;;;14.28;77.00;98754.50;4486876;31;35016;-90
2023/10/29 08:51:25;;;;;;;16.98;9.50;;;;;;;14.49;75.39;98749.94;4496616;31;34595;-89
2023/10/29 08:53:52;;;;;;;12.23;8.27;;;;;;;14.39;76.11;98754.38;4496543;31;33313;-88
2023/10/29 08:56:20;;;;;;;11.30;7.20;;;;;;;14.49;74.83;98758.66;4496554;31;34137;-89
2023/10/29 08:58:48;;;;;;;11.27;6.78;;;;;;;14.34;74.39;98751.81;4496615;31;34877;-89
2023/10/29 09:01:17;;;;;;;13.70;7.03;;;;;;;14.43;74.46;98753.47;4483223;31;34584;-85
2023/10/29 09:03:45;;;;;;;12.90;7.57;;;;;;;14.58;74.20;98762.91;4479176;31;32573;-86
2023/10/29 09:06:12;;;;;;;11.52;7.07;;;;;;;14.49;73.23;98757.78;4493058;31;33070;-87
2023/10/29 09:08:41;;;;;;;12.35;7.28;;;;;;;14.69;73.20;98755.00;4487549;31;33763;-88
2023/10/29 09:11:15;;;;;;;11.30;6.53;;;;;;;14.90;72.39;98756.53;4495598;31;34693;-87
2023/10/29 09:13:42;;;;;;;10.60;6.65;;;;;;;15.00;72.93;98760.72;4494345;31;33638;-88
2023/10/29 09:16:11;;;;;;;13.68;6.57;;;;;;;15.09;72.46;98760.66;4497326;31;33658;-90
2023/10/29 09:18:39;;;;;;;21.83;7.97;;;;;;;15.07;72.48;98755.41;4497875;31;35263;-86
2023/10/29 09:21:07;;;;;;;12.30;6.70;;;;;;;15.22;71.42;98761.34;4492806;31;34433;-87
2023/10/29 09:23:35;;;;;;;11.55;6.95;;;;;;;15.32;71.27;98747.28;4494910;31;33471;-86
2023/10/29 09:26:02;;;;;;;10.95;6.68;;;;;;;15.18;72.43;98749.22;4485359;31;32855;-87
2023/10/29 09:28:30;;;;;;;15.30;7.22;;;;;;;15.41;72.27;98741.94;4481966;31;34773;-86
2023/10/29 09:30:57;;;;;;;13.32;7.00;;;;;;;15.61;71.16;98739.06;4497713;31;33323;-89
2023/10/29 09:33:25;;;;;;;9.88;6.90;;;;;;;15.90;70.95;98746.50;4495363;31;31880;-88
2023/10/29 09:35:52;;;;;;;11.15;5.97;;;;;;;15.93;71.44;98746.44;4499519;31;33859;-87
2023/10/29 09:38:20;;;;;;;13.18;5.35;;;;;;;15.94;71.15;98742.94;4497787;31;34453;-87
2023/10/29 09:40:51;;;;;;;9.50;5.03;;;;;;;16.14;70.21;98732.19;4499498;31;34003;-90
2023/10/29 09:43:25;;;;;;;8.07;5.07;;;;;;;16.15;70.64;98744.34;4497369;31;34220;-90
2023/10/29 09:45:54;;;;;;;9.77;4.75;;;;;;;16.07;71.23;98727.94;4491277;31;33974;-84
2023/10/29 09:48:21;;;;;;;12.43;5.05;;;;;;;16.35;70.86;98736.16;4482935;31;34970;-86
2023/10/29 09:50:49;;;;;;;9.63;5.40;;;;;;;16.37;70.90;98737.03;4485428;31;34785;-88
2023/10/29 09:53:17;;;;;;;10.18;5.53;;;;;;;16.50;68.94;98738.50;4485431;31;34787;-88
2023/10/29 09:55:45;;;;;;;11.15;5.15;;;;;;;16.69;69.14;98736.41;4498378;31;33884;-86
2023/10/29 09:58:13;;;;;;;21.52;13.00;;;;;;;16.61;69.17;98743.56;4487447;31;36450;-87
2023/10/29 10:00:41;;;;;;;13.65;6.28;;;;;;;16.94;68.09;98736.00;4493754;31;33903;-82
2023/10/29 10:03:09;;;;;;;12.57;5.45;;;;;;;16.94;69.56;98739.47;4498557;31;33169;-89
2023/10/29 10:05:38;;;;;;;12.70;6.03;;;;;;;17.15;68.13;98732.06;4488105;31;33561;-89
2023/10/29 10:08:06;;;;;;;9.27;4.55;;;;;;;17.09;69.09;98727.81;4484568;31;34149;-91
2023/10/29 10:10:38;;;;;;;8.90;4.75;;;;;;;17.02;67.91;98724.47;4499194;31;33826;-93
2023/10/29 10:13:06;;;;;;;8.43;4.15;;;;;;;17.13;68.02;98726.00;4495715;31;32809;-82
2023/10/29 10:15:36;;;;;;;12.50;4.15;;;;;;;17.23;67.85;98717.91;4498707;31;33694;-84
2023/10/29 10:18:05;;;;;;;9.82;3.72;;;;;;;17.26;67.51;98714.38;4492485;31;32483;-85
2023/10/29 10:20:34;;;;;;;9.15;2.08;;;;;;;17.43;66.21;98716.62;4497748;31;33960;-84
2023/10/29 10:23:08;;;;;;;5.35;1.70;;;;;;;17.67;64.36;98715.22;4472935;32;31983;-88
2023/10/29 10:25:35;;;;;;;6.75;2.08;;;;;;;17.94;62.35;98704.09;4469364;32;33191;-83
2023/10/29 10:28:04;;;;;;;7.53;2.03;;;;;;;18.22;62.64;98703.38;4487654;31;34298;-87
2023/10/29 10:30:35;;;;;;;8.35;1.60;;;;;;;18.39;61.86;98698.56;4493476;31;33722;-87
2023/10/29 10:33:18;;;;;;;8.00;2.83;;;;;;;18.32;61.17;98699.63;4486831;31;32602;-81
2023/10/29 10:35:51;;;;;;;16.20;9.93;;;;;;;18.44;60.45;98687.94;4493031;31;33634;-86
2023/10/29 10:38:20;;;;;;;6.47;1.60;;;;;;;18.77;59.61;98696.72;4493675;31;34391;-86
2023/10/29 10:41:00;;;;;;;5.53;1.60;;;;;;;18.80;58.65;98685.28;4499392;31;33922;-83
2023/10/29 10:43:28;;;;;;;5.40;1.30;;;;;;;18.60;58.58;98681.41;4487727;31;34220;-85
2023/10/29 10:45:58;;;;;;;6.40;1.45;;;;;;;18.84;58.06;98681.66;4484570;31;33867;-86
2023/10/29 10:48:27;;;;;;;7.28;1.30;;;;;;;19.04;58.02;98689.81;4480041;31;33402;-84
2023/10/29 10:50:55;;;;;;;6.43;1.05;;;;;;;18.83;58.17;98680.78;4497066;31;33304;-86
2023/10/29 10:53:24;;;;;;;6.72;1.37;;;;;;;19.04;57.83;98668.78;4482362;31;33419;-86
2023/10/29 10:55:53;;;;;;;6.75;1.15;;;;;;;19.27;57.12;98675.13;4480423;31;33484;-84
2023/10/29 10:58:31;;;;;;;7.05;1.08;;;;;;;19.33;57.05;98669.69;4482620;31;34762;-87
2023/10/29 11:00:58;;;;;;;6.57;1.05;;;;;;;19.23;55.43;98666.47;4468368;32;33906;-86
2023/10/29 11:03:30;;;;;;;7.85;1.40;;;;;;;19.43;55.61;98673.75;4481532;32;33768;-88
2023/10/29 11:06:00;;;;;;;7.95;1.40;;;;;;;19.54;56.18;98681.28;4490949;31;33476;-88
2023/10/29 11:08:28;;;;;;;4.90;1.40;;;;;;;19.43;55.86;98679.88;4498357;31;34645;-87
2023/10/29 11:10:59;;;;;;;4.75;1.00;;;;;;;19.57;55.83;98668.91;4475117;31;32558;-89
2023/10/29 11:13:27;;;;;;;2.92;1.02;;;;;;;19.57;55.26;98657.53;4498030;31;32848;-87
2023/10/29 11:15:55;;;;;;;5.82;1.20;;;;;;;19.63;55.09;98675.81;4497449;31;33970;-89
2023/10/29 11:18:29;;;;;;;8.13;1.33;;;;;;;19.76;54.25;98666.59;4487255;31;34855;-87
2023/10/29 11:21:03;;;;;;;5.28;1.10;;;;;;;19.79;54.02;98663.88;4484374;31;33553;-90
2023/10/29 11:23:32;;;;;;;3.85;1.30;;;;;;;19.66;54.42;98657.25;4471515;31;31925;-87